sensor_id;sensor_type;location;lat;lon;timestamp;pressure;altitude;pressure_sealevel;temperature;humidity
7105;BME280;3594;42.152;24.714;2024-02-23T00:01:25;57574.09;;;3.59;nan
7105;BME280;3594;42.152;24.714;2024-02-23T00:03:51;57252.34;;;3.86;nan
7105;BME280;3594;42.152;24.714;2024-02-23T00:06:17;56950.78;;;3.89;nan
7105;BME280;3594;42.152;24.714;2024-02-23T00:08:43;56513.22;;;3.67;nan
7105;BME280;3594;42.152;24.714;2024-02-23T00:11:09;56397.59;;;3.86;nan
7105;BME280;3594;42.152;24.714;2024-02-23T00:13:35;56543.88;;;3.96;nan
7105;BME280;3594;42.152;24.714;2024-02-23T00:16:00;56445.00;;;3.86;nan
7105;BME280;3594;42.152;24.714;2024-02-23T00:18:26;56398.59;;;3.97;nan
7105;BME280;3594;42.152;24.714;2024-02-23T00:20:51;56027.03;;;3.79;nan
7105;BME280;3594;42.152;24.714;2024-02-23T00:23:16;55674.66;;;3.70;nan
7105;BME280;3594;42.152;24.714;2024-02-23T00:25:42;55048.31;;;3.44;nan
7105;BME280;3594;42.152;24.714;2024-02-23T00:28:08;54665.91;;;3.80;nan
7105;BME280;3594;42.152;24.714;2024-02-23T00:30:34;53454.53;;;3.68;nan
7105;BME280;3594;42.152;24.714;2024-02-23T00:32:59;52398.88;;;3.47;nan
7105;BME280;3594;42.152;24.714;2024-02-23T00:35:24;51631.50;;;3.61;nan
7105;BME280;3594;42.152;24.714;2024-02-23T00:37:50;49896.56;;;3.61;nan
7105;BME280;3594;42.152;24.714;2024-02-23T00:40:15;47734.97;;;3.54;nan
7105;BME280;3594;42.152;24.714;2024-02-23T00:42:41;46419.69;;;3.31;nan
7105;BME280;3594;42.152;24.714;2024-02-23T00:45:07;44442.97;;;3.55;nan
7105;BME280;3594;42.152;24.714;2024-02-23T00:47:32;43680.09;;;3.50;nan
7105;BME280;3594;42.152;24.714;2024-02-23T00:49:58;42187.47;;;3.59;nan
7105;BME280;3594;42.152;24.714;2024-02-23T00:52:23;42148.25;;;3.35;nan
7105;BME280;3594;42.152;24.714;2024-02-23T00:54:49;43430.56;;;3.68;nan
7105;BME280;3594;42.152;24.714;2024-02-23T00:57:14;44553.72;;;3.68;nan
7105;BME280;3594;42.152;24.714;2024-02-23T00:59:41;45873.09;;;3.73;nan
7105;BME280;3594;42.152;24.714;2024-02-23T01:02:06;46253.38;;;3.68;nan
7105;BME280;3594;42.152;24.714;2024-02-23T01:04:32;46294.09;;;3.51;nan
7105;BME280;3594;42.152;24.714;2024-02-23T01:06:58;45954.34;;;3.51;nan
7105;BME280;3594;42.152;24.714;2024-02-23T01:09:23;44883.09;;;3.56;nan
7105;BME280;3594;42.152;24.714;2024-02-23T01:11:49;44408.84;;;3.42;nan
7105;BME280;3594;42.152;24.714;2024-02-23T01:14:14;43357.00;;;3.27;nan
7105;BME280;3594;42.152;24.714;2024-02-23T01:16:41;43066.94;;;3.41;nan
7105;BME280;3594;42.152;24.714;2024-02-23T01:19:06;43471.66;;;3.14;nan
7105;BME280;3594;42.152;24.714;2024-02-23T01:21:32;44599.09;;;3.53;nan
7105;BME280;3594;42.152;24.714;2024-02-23T01:23:58;45807.72;;;3.50;nan
7105;BME280;3594;42.152;24.714;2024-02-23T01:26:25;46321.53;;;3.28;nan
7105;BME280;3594;42.152;24.714;2024-02-23T01:28:51;47611.75;;;3.54;nan
7105;BME280;3594;42.152;24.714;2024-02-23T01:31:17;48165.25;;;3.46;nan
7105;BME280;3594;42.152;24.714;2024-02-23T01:33:42;50067.25;;;3.60;nan
7105;BME280;3594;42.152;24.714;2024-02-23T01:36:08;50183.00;;;3.33;nan
7105;BME280;3594;42.152;24.714;2024-02-23T01:38:35;49071.78;;;3.12;nan
7105;BME280;3594;42.152;24.714;2024-02-23T01:41:00;48651.66;;;3.28;nan
7105;BME280;3594;42.152;24.714;2024-02-23T01:43:26;48018.31;;;3.09;nan
7105;BME280;3594;42.152;24.714;2024-02-23T01:45:52;47689.00;;;3.20;nan
7105;BME280;3594;42.152;24.714;2024-02-23T01:48:19;46882.19;;;3.26;nan
7105;BME280;3594;42.152;24.714;2024-02-23T01:50:44;46064.09;;;3.21;nan
7105;BME280;3594;42.152;24.714;2024-02-23T01:53:12;44424.63;;;3.07;nan
7105;BME280;3594;42.152;24.714;2024-02-23T01:55:45;43222.72;;;3.17;nan
7105;BME280;3594;42.152;24.714;2024-02-23T01:58:11;40980.22;;;3.11;nan
7105;BME280;3594;42.152;24.714;2024-02-23T02:00:37;40887.03;;;3.10;nan
7105;BME280;3594;42.152;24.714;2024-02-23T02:03:03;39331.56;;;2.93;nan
7105;BME280;3594;42.152;24.714;2024-02-23T02:05:28;38699.53;;;3.05;nan
7105;BME280;3594;42.152;24.714;2024-02-23T02:07:55;37731.41;;;2.97;nan
7105;BME280;3594;42.152;24.714;2024-02-23T02:10:24;36437.22;;;2.81;nan
7105;BME280;3594;42.152;24.714;2024-02-23T02:12:50;38999.38;;;2.78;nan
7105;BME280;3594;42.152;24.714;2024-02-23T02:15:16;40432.72;;;3.10;nan
7105;BME280;3594;42.152;24.714;2024-02-23T02:17:41;40991.78;;;2.94;nan
7105;BME280;3594;42.152;24.714;2024-02-23T02:20:11;40451.88;;;2.86;nan
7105;BME280;3594;42.152;24.714;2024-02-23T02:22:37;40022.19;;;2.98;nan
7105;BME280;3594;42.152;24.714;2024-02-23T02:25:02;38045.38;;;2.88;nan
7105;BME280;3594;42.152;24.714;2024-02-23T02:27:28;36111.09;;;2.73;nan
7105;BME280;3594;42.152;24.714;2024-02-23T02:29:53;35155.72;;;2.81;nan
7105;BME280;3594;42.152;24.714;2024-02-23T02:32:19;35139.34;;;2.57;nan
7105;BME280;3594;42.152;24.714;2024-02-23T02:34:44;34822.63;;;2.62;nan
7105;BME280;3594;42.152;24.714;2024-02-23T02:37:10;34162.25;;;2.32;nan
7105;BME280;3594;42.152;24.714;2024-02-23T02:39:35;34830.56;;;2.74;nan
7105;BME280;3594;42.152;24.714;2024-02-23T02:42:01;34827.13;;;2.68;nan
7105;BME280;3594;42.152;24.714;2024-02-23T02:44:26;34188.13;;;2.71;nan
7105;BME280;3594;42.152;24.714;2024-02-23T02:46:58;38034.94;;;2.74;nan
7105;BME280;3594;42.152;24.714;2024-02-23T02:49:24;39428.22;;;2.65;nan
7105;BME280;3594;42.152;24.714;2024-02-23T02:51:49;40163.31;;;2.53;nan
7105;BME280;3594;42.152;24.714;2024-02-23T02:54:15;38755.59;;;2.06;nan
7105;BME280;3594;42.152;24.714;2024-02-23T02:56:45;37683.69;;;2.32;nan
7105;BME280;3594;42.152;24.714;2024-02-23T02:59:12;37675.94;;;2.21;nan
7105;BME280;3594;42.152;24.714;2024-02-23T03:01:38;37996.56;;;2.22;nan
7105;BME280;3594;42.152;24.714;2024-02-23T03:04:04;37664.84;;;2.06;nan
7105;BME280;3594;42.152;24.714;2024-02-23T03:06:29;37983.91;;;2.05;nan
7105;BME280;3594;42.152;24.714;2024-02-23T03:08:55;38292.50;;;1.89;nan
7105;BME280;3594;42.152;24.714;2024-02-23T03:11:20;38312.75;;;2.16;nan
7105;BME280;3594;42.152;24.714;2024-02-23T03:13:46;38306.38;;;2.08;nan
7105;BME280;3594;42.152;24.714;2024-02-23T03:16:16;36384.81;;;2.07;nan
7105;BME280;3594;42.152;24.714;2024-02-23T03:18:41;35081.22;;;1.72;nan
7105;BME280;3594;42.152;24.714;2024-02-23T03:21:07;34462.72;;;2.03;nan
7105;BME280;3594;42.152;24.714;2024-02-23T03:23:35;33817.34;;;1.95;nan
7105;BME280;3594;42.152;24.714;2024-02-23T03:26:00;32844.47;;;1.73;nan
7105;BME280;3594;42.152;24.714;2024-02-23T03:28:26;32201.56;;;1.67;nan
7105;BME280;3594;42.152;24.714;2024-02-23T03:30:51;32220.34;;;1.97;nan
7105;BME280;3594;42.152;24.714;2024-02-23T03:33:16;31897.91;;;1.92;nan
7105;BME280;3594;42.152;24.714;2024-02-23T03:35:42;31568.81;;;1.77;nan
7105;BME280;3594;42.152;24.714;2024-02-23T03:38:07;30618.75;;;1.90;nan
7105;BME280;3594;42.152;24.714;2024-02-23T03:40:33;29023.59;;;1.93;nan
7105;BME280;3594;42.152;24.714;2024-02-23T03:43:01;28065.06;;;1.91;nan
7105;BME280;3594;42.152;24.714;2024-02-23T03:45:27;26140.53;;;1.72;nan
7105;BME280;3594;42.152;24.714;2024-02-23T03:47:52;26459.41;;;1.72;nan
7105;BME280;3594;42.152;24.714;2024-02-23T03:50:18;25187.47;;;1.79;nan
7105;BME280;3594;42.152;24.714;2024-02-23T03:52:43;25187.72;;;1.80;nan
7105;BME280;3594;42.152;24.714;2024-02-23T03:55:09;25512.19;;;1.90;nan
7105;BME280;3594;42.152;24.714;2024-02-23T03:57:34;24534.56;;;1.49;nan
7105;BME280;3594;42.152;24.714;2024-02-23T03:59:59;21993.34;;;1.63;nan
7105;BME280;3594;42.152;24.714;2024-02-23T04:02:25;19120.28;;;1.44;nan
7105;BME280;3594;42.152;24.714;2024-02-23T04:04:50;17212.84;;;1.45;nan
7105;BME280;3594;42.152;24.714;2024-02-23T04:07:16;16576.97;;;1.44;nan
7105;BME280;3594;42.152;24.714;2024-02-23T04:09:41;14360.13;;;1.65;nan
7105;BME280;3594;42.152;24.714;2024-02-23T04:12:07;12774.50;;;1.73;nan
7105;BME280;3594;42.152;24.714;2024-02-23T04:14:33;11186.72;;;1.72;nan
7105;BME280;3594;42.152;24.714;2024-02-23T04:17:04;10234.50;;;1.72;nan
7105;BME280;3594;42.152;24.714;2024-02-23T04:19:29;9283.38;;;1.75;nan
7105;BME280;3594;42.152;24.714;2024-02-23T04:21:55;8965.59;;;1.73;nan
7105;BME280;3594;42.152;24.714;2024-02-23T04:24:20;8965.84;;;1.74;nan
7105;BME280;3594;42.152;24.714;2024-02-23T04:26:46;8961.31;;;1.57;nan
7105;BME280;3594;42.152;24.714;2024-02-23T04:29:11;9274.94;;;1.43;nan
7105;BME280;3594;42.152;24.714;2024-02-23T04:31:37;8646.84;;;1.67;nan
7105;BME280;3594;42.152;24.714;2024-02-23T04:34:03;8325.97;;;1.52;nan
7105;BME280;3594;42.152;24.714;2024-02-23T04:36:28;8007.94;;;1.48;nan
7105;BME280;3594;42.152;24.714;2024-02-23T04:38:54;9275.97;;;1.47;nan
7105;BME280;3594;42.152;24.714;2024-02-23T04:41:20;9283.63;;;1.76;nan
7105;BME280;3594;42.152;24.714;2024-02-23T04:43:50;9283.25;;;1.75;nan
7105;BME280;3594;42.152;24.714;2024-02-23T04:46:15;8957.31;;;1.41;nan
7105;BME280;3594;42.152;24.714;2024-02-23T04:48:41;8954.59;;;1.30;nan
7105;BME280;3594;42.152;24.714;2024-02-23T04:51:07;8326.44;;;1.54;nan
7105;BME280;3594;42.152;24.714;2024-02-23T04:53:38;8005.63;;;1.39;nan
7105;BME280;3594;42.152;24.714;2024-02-23T04:56:04;7685.47;;;1.25;nan
7105;BME280;3594;42.152;24.714;2024-02-23T04:58:30;7691.66;;;1.51;nan
7105;BME280;3594;42.152;24.714;2024-02-23T05:00:55;7056.44;;;1.46;nan
7105;BME280;3594;42.152;24.714;2024-02-23T05:03:21;6737.22;;;1.35;nan
7105;BME280;3594;42.152;24.714;2024-02-23T05:05:47;6736.56;;;1.32;nan
7105;BME280;3594;42.152;24.714;2024-02-23T05:08:14;6738.78;;;1.42;nan
7105;BME280;3594;42.152;24.714;2024-02-23T05:10:40;6107.31;;;1.53;nan
7105;BME280;3594;42.152;24.714;2024-02-23T05:13:05;6099.44;;;1.15;nan
7105;BME280;3594;42.152;24.714;2024-02-23T05:15:31;6105.31;;;1.43;nan
7105;BME280;3594;42.152;24.714;2024-02-23T05:17:57;5789.75;;;1.49;nan
7105;BME280;3594;42.152;24.714;2024-02-23T05:20:22;5158.75;;;1.62;nan
7105;BME280;3594;42.152;24.714;2024-02-23T05:22:48;5154.25;;;1.39;nan
7105;BME280;3594;42.152;24.714;2024-02-23T05:25:13;5160.41;;;1.71;nan
7105;BME280;3594;42.152;24.714;2024-02-23T05:27:39;5159.81;;;1.68;nan
7105;BME280;3594;42.152;24.714;2024-02-23T05:30:05;4842.53;;;1.65;nan
7105;BME280;3594;42.152;24.714;2024-02-23T05:32:32;4526.75;;;1.71;nan
7105;BME280;3594;42.152;24.714;2024-02-23T05:34:57;4530.34;;;1.91;nan
7105;BME280;3594;42.152;24.714;2024-02-23T05:37:22;4206.81;;;1.53;nan
7105;BME280;3594;42.152;24.714;2024-02-23T05:39:49;3889.22;;;1.48;nan
7105;BME280;3594;42.152;24.714;2024-02-23T05:42:14;4217.41;;;2.13;nan
7105;BME280;3594;42.152;24.714;2024-02-23T05:44:43;7389.19;;;2.14;nan
7105;BME280;3594;42.152;24.714;2024-02-23T05:47:08;8022.03;;;2.07;nan
7105;BME280;3594;42.152;24.714;2024-02-23T05:49:35;8025.91;;;2.23;nan
7105;BME280;3594;42.152;24.714;2024-02-23T05:52:00;8985.41;;;2.51;nan
7105;BME280;3594;42.152;24.714;2024-02-23T05:54:26;10254.41;;;2.44;nan
7105;BME280;3594;42.152;24.714;2024-02-23T05:56:51;10892.25;;;2.52;nan
7105;BME280;3594;42.152;24.714;2024-02-23T05:59:17;11522.56;;;2.34;nan
7105;BME280;3594;42.152;24.714;2024-02-23T06:01:42;12491.97;;;2.85;nan
7105;BME280;3594;42.152;24.714;2024-02-23T06:04:07;15678.06;;;2.93;nan
7105;BME280;3594;42.152;24.714;2024-02-23T06:06:33;16953.72;;;2.96;nan
7105;BME280;3594;42.152;24.714;2024-02-23T06:08:58;15997.53;;;2.95;nan
7105;BME280;3594;42.152;24.714;2024-02-23T06:11:25;15684.75;;;3.11;nan
7105;BME280;3594;42.152;24.714;2024-02-23T06:13:50;16003.56;;;3.11;nan
7105;BME280;3594;42.152;24.714;2024-02-23T06:16:16;17925.94;;;3.36;nan
7105;BME280;3594;42.152;24.714;2024-02-23T06:18:42;20164.69;;;3.48;nan
7105;BME280;3594;42.152;24.714;2024-02-23T06:21:14;21761.72;;;3.49;nan
7105;BME280;3594;42.152;24.714;2024-02-23T06:23:41;22723.91;;;3.58;nan
7105;BME280;3594;42.152;24.714;2024-02-23T06:26:06;23051.13;;;3.73;nan
7105;BME280;3594;42.152;24.714;2024-02-23T06:28:32;24019.63;;;3.92;nan
7105;BME280;3594;42.152;24.714;2024-02-23T06:30:58;25620.22;;;3.94;nan
7105;BME280;3594;42.152;24.714;2024-02-23T06:33:23;25944.03;;;4.01;nan
7105;BME280;3594;42.152;24.714;2024-02-23T06:35:49;29147.06;;;4.03;nan
7105;BME280;3594;42.152;24.714;2024-02-23T06:38:14;31092.19;;;4.38;nan
7105;BME280;3594;42.152;24.714;2024-02-23T06:40:40;33004.69;;;4.19;nan
7105;BME280;3594;42.152;24.714;2024-02-23T06:43:05;38951.41;;;4.34;nan
7105;BME280;3594;42.152;24.714;2024-02-23T06:45:31;44316.53;;;4.62;nan
7105;BME280;3594;42.152;24.714;2024-02-23T06:47:56;47672.50;;;4.67;nan
7105;BME280;3594;42.152;24.714;2024-02-23T06:50:22;49020.63;;;4.62;nan
7105;BME280;3594;42.152;24.714;2024-02-23T06:52:48;50118.91;;;4.90;nan
7105;BME280;3594;42.152;24.714;2024-02-23T06:55:15;51476.25;;;4.88;nan
7105;BME280;3594;42.152;24.714;2024-02-23T06:57:40;51657.97;;;5.01;nan
7105;BME280;3594;42.152;24.714;2024-02-23T07:00:06;52390.81;;;5.28;nan
7105;BME280;3594;42.152;24.714;2024-02-23T07:02:32;52646.25;;;5.10;nan
7105;BME280;3594;42.152;24.714;2024-02-23T07:05:02;52973.50;;;5.12;nan
7105;BME280;3594;42.152;24.714;2024-02-23T07:07:30;54316.03;;;5.61;nan
7105;BME280;3594;42.152;24.714;2024-02-23T07:09:56;55103.50;;;5.64;nan
7105;BME280;3594;42.152;24.714;2024-02-23T07:12:21;55337.75;;;5.88;nan
7105;BME280;3594;42.152;24.714;2024-02-23T07:14:48;55594.75;;;5.67;nan
7105;BME280;3594;42.152;24.714;2024-02-23T07:17:16;54997.91;;;5.43;nan
7105;BME280;3594;42.152;24.714;2024-02-23T07:19:42;54758.47;;;5.93;nan
7105;BME280;3594;42.152;24.714;2024-02-23T07:22:07;55114.25;;;5.97;nan
7105;BME280;3594;42.152;24.714;2024-02-23T07:24:33;55955.00;;;6.30;nan
7105;BME280;3594;42.152;24.714;2024-02-23T07:26:58;56716.38;;;6.65;nan
7105;BME280;3594;42.152;24.714;2024-02-23T07:29:24;57122.53;;;6.78;nan
7105;BME280;3594;42.152;24.714;2024-02-23T07:31:49;57025.41;;;6.72;nan
7105;BME280;3594;42.152;24.714;2024-02-23T07:34:14;57441.47;;;6.96;nan
7105;BME280;3594;42.152;24.714;2024-02-23T07:36:40;57297.72;;;6.92;nan
7105;BME280;3594;42.152;24.714;2024-02-23T07:39:05;57767.25;;;7.40;nan
7105;BME280;3594;42.152;24.714;2024-02-23T07:41:31;58431.78;;;7.47;nan
7105;BME280;3594;42.152;24.714;2024-02-23T07:43:56;58712.44;;;7.79;nan
7105;BME280;3594;42.152;24.714;2024-02-23T07:46:22;59027.75;;;7.63;nan
7105;BME280;3594;42.152;24.714;2024-02-23T07:48:48;59147.50;;;8.24;nan
7105;BME280;3594;42.152;24.714;2024-02-23T07:51:13;59487.16;;;8.23;nan
7105;BME280;3594;42.152;24.714;2024-02-23T07:53:39;59768.81;;;8.38;nan
7105;BME280;3594;42.152;24.714;2024-02-23T07:56:07;59877.16;;;8.77;nan
7105;BME280;3594;42.152;24.714;2024-02-23T07:58:33;60067.09;;;8.99;nan
7105;BME280;3594;42.152;24.714;2024-02-23T08:00:58;60165.84;;;8.99;nan
7105;BME280;3594;42.152;24.714;2024-02-23T08:03:23;60341.25;;;9.21;nan
7105;BME280;3594;42.152;24.714;2024-02-23T08:05:49;60379.34;;;9.30;nan
7105;BME280;3594;42.152;24.714;2024-02-23T08:08:14;60381.03;;;9.32;nan
7105;BME280;3594;42.152;24.714;2024-02-23T08:10:40;60465.56;;;9.42;nan
7105;BME280;3594;42.152;24.714;2024-02-23T08:13:05;60408.44;;;9.57;nan
7105;BME280;3594;42.152;24.714;2024-02-23T08:15:31;60665.97;;;9.77;nan
7105;BME280;3594;42.152;24.714;2024-02-23T08:17:56;60513.88;;;9.71;nan
7105;BME280;3594;42.152;24.714;2024-02-23T08:20:22;60489.34;;;9.65;nan
7105;BME280;3594;42.152;24.714;2024-02-23T08:22:48;60492.13;;;9.68;nan
7105;BME280;3594;42.152;24.714;2024-02-23T08:25:13;60654.00;;;9.85;nan
7105;BME280;3594;42.152;24.714;2024-02-23T08:27:40;60547.97;;;9.65;nan
7105;BME280;3594;42.152;24.714;2024-02-23T08:30:06;60539.59;;;9.79;nan
7105;BME280;3594;42.152;24.714;2024-02-23T08:32:32;60676.16;;;9.52;nan
7105;BME280;3594;42.152;24.714;2024-02-23T08:34:57;60563.56;;;9.63;nan
7105;BME280;3594;42.152;24.714;2024-02-23T08:37:27;60510.84;;;9.66;nan
7105;BME280;3594;42.152;24.714;2024-02-23T08:39:53;60543.66;;;9.94;nan
7105;BME280;3594;42.152;24.714;2024-02-23T08:42:19;60596.66;;;10.18;nan
7105;BME280;3594;42.152;24.714;2024-02-23T08:44:45;60604.75;;;10.28;nan
7105;BME280;3594;42.152;24.714;2024-02-23T08:47:10;60662.44;;;10.18;nan
7105;BME280;3594;42.152;24.714;2024-02-23T08:49:36;60625.56;;;10.42;nan
7105;BME280;3594;42.152;24.714;2024-02-23T08:52:01;60621.09;;;10.38;nan
7105;BME280;3594;42.152;24.714;2024-02-23T08:54:27;60729.81;;;10.79;nan
7105;BME280;3594;42.152;24.714;2024-02-23T08:56:53;60742.69;;;10.95;nan
7105;BME280;3594;42.152;24.714;2024-02-23T08:59:18;60737.03;;;11.15;nan
7105;BME280;3594;42.152;24.714;2024-02-23T09:01:44;60780.75;;;11.18;nan
7105;BME280;3594;42.152;24.714;2024-02-23T09:04:09;60768.59;;;11.60;nan
7105;BME280;3594;42.152;24.714;2024-02-23T09:06:35;60817.63;;;11.74;nan
7105;BME280;3594;42.152;24.714;2024-02-23T09:09:00;60846.63;;;11.72;nan
7105;BME280;3594;42.152;24.714;2024-02-23T09:11:26;60842.75;;;11.85;nan
7105;BME280;3594;42.152;24.714;2024-02-23T09:13:51;60831.03;;;11.90;nan
7105;BME280;3594;42.152;24.714;2024-02-23T09:16:16;60871.81;;;12.04;nan
7105;BME280;3594;42.152;24.714;2024-02-23T09:18:42;60896.09;;;11.96;nan
7105;BME280;3594;42.152;24.714;2024-02-23T09:21:08;60920.19;;;12.27;nan
7105;BME280;3594;42.152;24.714;2024-02-23T09:23:33;60908.06;;;12.18;nan
7105;BME280;3594;42.152;24.714;2024-02-23T09:25:59;60959.16;;;12.53;nan
7105;BME280;3594;42.152;24.714;2024-02-23T09:28:25;61020.69;;;12.73;nan
7105;BME280;3594;42.152;24.714;2024-02-23T09:30:50;60955.75;;;12.29;nan
7105;BME280;3594;42.152;24.714;2024-02-23T09:33:16;61008.66;;;12.56;nan
7105;BME280;3594;42.152;24.714;2024-02-23T09:35:41;60931.25;;;12.30;nan
7105;BME280;3594;42.152;24.714;2024-02-23T09:38:06;60940.44;;;12.24;nan
7105;BME280;3594;42.152;24.714;2024-02-23T09:40:32;60884.25;;;12.11;nan
7105;BME280;3594;42.152;24.714;2024-02-23T09:42:58;60954.56;;;12.32;nan
7105;BME280;3594;42.152;24.714;2024-02-23T09:45:26;60929.97;;;12.17;nan
7105;BME280;3594;42.152;24.714;2024-02-23T09:47:57;60990.03;;;12.64;nan
7105;BME280;3594;42.152;24.714;2024-02-23T09:50:23;60972.00;;;12.73;nan
7105;BME280;3594;42.152;24.714;2024-02-23T09:52:50;61044.56;;;12.76;nan
7105;BME280;3594;42.152;24.714;2024-02-23T09:55:21;60967.34;;;12.58;nan
7105;BME280;3594;42.152;24.714;2024-02-23T09:57:48;60990.81;;;12.47;nan
7105;BME280;3594;42.152;24.714;2024-02-23T10:00:15;60970.00;;;12.49;nan
7105;BME280;3594;42.152;24.714;2024-02-23T10:02:43;60919.41;;;12.45;nan
7105;BME280;3594;42.152;24.714;2024-02-23T10:05:10;61006.91;;;12.84;nan
7105;BME280;3594;42.152;24.714;2024-02-23T10:07:36;61084.09;;;11.97;nan
7105;BME280;3594;42.152;24.714;2024-02-23T10:10:01;61026.91;;;13.00;nan
7105;BME280;3594;42.152;24.714;2024-02-23T10:12:27;61040.66;;;13.19;nan
7105;BME280;3594;42.152;24.714;2024-02-23T10:14:53;61028.22;;;13.12;nan
7105;BME280;3594;42.152;24.714;2024-02-23T10:17:20;61047.03;;;13.36;nan
7105;BME280;3594;42.152;24.714;2024-02-23T10:19:45;61057.97;;;13.48;nan
7105;BME280;3594;42.152;24.714;2024-02-23T10:22:11;61080.09;;;13.59;nan
7105;BME280;3594;42.152;24.714;2024-02-23T10:24:37;61013.16;;;12.85;nan
7105;BME280;3594;42.152;24.714;2024-02-23T10:27:02;61047.44;;;13.25;nan
7105;BME280;3594;42.152;24.714;2024-02-23T10:29:28;61090.88;;;13.64;nan
7105;BME280;3594;42.152;24.714;2024-02-23T10:31:56;61114.50;;;13.44;nan
7105;BME280;3594;42.152;24.714;2024-02-23T10:34:24;61049.75;;;13.22;nan
7105;BME280;3594;42.152;24.714;2024-02-23T10:36:49;61042.00;;;13.02;nan
7105;BME280;3594;42.152;24.714;2024-02-23T10:39:17;61080.16;;;13.54;nan
7105;BME280;3594;42.152;24.714;2024-02-23T10:41:56;61148.56;;;14.02;nan
7105;BME280;3594;42.152;24.714;2024-02-23T10:44:23;61145.75;;;13.99;nan
7105;BME280;3594;42.152;24.714;2024-02-23T10:46:50;61133.38;;;14.30;nan
7105;BME280;3594;42.152;24.714;2024-02-23T10:49:18;61194.16;;;14.56;nan
7105;BME280;3594;42.152;24.714;2024-02-23T10:51:46;61225.13;;;14.68;nan
7105;BME280;3594;42.152;24.714;2024-02-23T10:54:14;61346.53;;;14.69;nan
7105;BME280;3594;42.152;24.714;2024-02-23T10:56:41;61200.41;;;14.57;nan
7105;BME280;3594;42.152;24.714;2024-02-23T10:59:08;61227.59;;;14.77;nan
7105;BME280;3594;42.152;24.714;2024-02-23T11:01:34;61145.25;;;14.61;nan
7105;BME280;3594;42.152;24.714;2024-02-23T11:04:01;61246.09;;;15.03;nan
7105;BME280;3594;42.152;24.714;2024-02-23T11:06:28;61266.00;;;15.12;nan
7105;BME280;3594;42.152;24.714;2024-02-23T11:09:04;61243.41;;;14.91;nan
7105;BME280;3594;42.152;24.714;2024-02-23T11:11:31;61251.00;;;15.00;nan
7105;BME280;3594;42.152;24.714;2024-02-23T11:13:57;61231.28;;;14.78;nan
7105;BME280;3594;42.152;24.714;2024-02-23T11:16:23;61167.44;;;14.46;nan
7105;BME280;3594;42.152;24.714;2024-02-23T11:18:48;61181.16;;;14.45;nan
7105;BME280;3594;42.152;24.714;2024-02-23T11:21:14;61122.22;;;14.31;nan
7105;BME280;3594;42.152;24.714;2024-02-23T11:23:49;61215.31;;;14.52;nan
7105;BME280;3594;42.152;24.714;2024-02-23T11:26:18;61179.97;;;14.48;nan
7105;BME280;3594;42.152;24.714;2024-02-23T11:28:50;61199.94;;;14.27;nan
7105;BME280;3594;42.152;24.714;2024-02-23T11:31:22;61125.66;;;14.09;nan
7105;BME280;3594;42.152;24.714;2024-02-23T11:33:49;61175.22;;;14.63;nan
7105;BME280;3594;42.152;24.714;2024-02-23T11:36:22;61235.44;;;14.89;nan
7105;BME280;3594;42.152;24.714;2024-02-23T11:38:52;61261.22;;;15.05;nan
7105;BME280;3594;42.152;24.714;2024-02-23T11:41:20;61236.81;;;15.34;nan
7105;BME280;3594;42.152;24.714;2024-02-23T11:43:47;61449.16;;;15.21;nan
7105;BME280;3594;42.152;24.714;2024-02-23T11:46:14;61268.50;;;15.37;nan
7105;BME280;3594;42.152;24.714;2024-02-23T11:48:39;61281.22;;;15.51;nan
7105;BME280;3594;42.152;24.714;2024-02-23T11:51:05;61267.19;;;15.29;nan
7105;BME280;3594;42.152;24.714;2024-02-23T11:53:30;61271.53;;;15.26;nan
7105;BME280;3594;42.152;24.714;2024-02-23T11:55:57;61272.66;;;15.27;nan
7105;BME280;3594;42.152;24.714;2024-02-23T11:58:23;61300.34;;;15.31;nan
7105;BME280;3594;42.152;24.714;2024-02-23T12:00:50;61266.25;;;15.35;nan
7105;BME280;3594;42.152;24.714;2024-02-23T12:03:16;61316.44;;;15.47;nan
7105;BME280;3594;42.152;24.714;2024-02-23T12:05:42;61294.19;;;15.41;nan
7105;BME280;3594;42.152;24.714;2024-02-23T12:08:08;61342.84;;;15.85;nan
7105;BME280;3594;42.152;24.714;2024-02-23T12:10:34;61327.81;;;15.53;nan
7105;BME280;3594;42.152;24.714;2024-02-23T12:12:59;61353.25;;;15.76;nan
7105;BME280;3594;42.152;24.714;2024-02-23T12:15:25;61249.88;;;15.62;nan
7105;BME280;3594;42.152;24.714;2024-02-23T12:17:50;61289.91;;;15.81;nan
7105;BME280;3594;42.152;24.714;2024-02-23T12:20:16;61218.91;;;15.66;nan
7105;BME280;3594;42.152;24.714;2024-02-23T12:22:42;61279.63;;;15.61;nan
7105;BME280;3594;42.152;24.714;2024-02-23T12:25:07;61347.97;;;15.64;nan
7105;BME280;3594;42.152;24.714;2024-02-23T12:27:33;61320.91;;;15.77;nan
7105;BME280;3594;42.152;24.714;2024-02-23T12:29:58;61309.66;;;15.62;nan
7105;BME280;3594;42.152;24.714;2024-02-23T12:32:25;61296.59;;;15.34;nan
7105;BME280;3594;42.152;24.714;2024-02-23T12:34:50;61321.28;;;15.70;nan
7105;BME280;3594;42.152;24.714;2024-02-23T12:37:17;61288.81;;;15.60;nan
7105;BME280;3594;42.152;24.714;2024-02-23T12:39:44;61256.56;;;15.31;nan
7105;BME280;3594;42.152;24.714;2024-02-23T12:42:09;61315.31;;;15.67;nan
7105;BME280;3594;42.152;24.714;2024-02-23T12:44:35;61339.31;;;15.70;nan
7105;BME280;3594;42.152;24.714;2024-02-23T12:47:01;61439.13;;;15.74;nan
7105;BME280;3594;42.152;24.714;2024-02-23T12:49:27;61357.47;;;16.03;nan
7105;BME280;3594;42.152;24.714;2024-02-23T12:51:52;61341.06;;;15.67;nan
7105;BME280;3594;42.152;24.714;2024-02-23T12:54:17;61353.59;;;15.95;nan
7105;BME280;3594;42.152;24.714;2024-02-23T12:56:43;61298.97;;;15.89;nan
7105;BME280;3594;42.152;24.714;2024-02-23T12:59:09;61298.09;;;15.91;nan
7105;BME280;3594;42.152;24.714;2024-02-23T13:01:37;61392.91;;;16.07;nan
7105;BME280;3594;42.152;24.714;2024-02-23T13:04:04;61364.81;;;16.09;nan
7105;BME280;3594;42.152;24.714;2024-02-23T13:06:38;61611.25;;;16.20;nan
7105;BME280;3594;42.152;24.714;2024-02-23T13:09:05;61394.94;;;16.27;nan
7105;BME280;3594;42.152;24.714;2024-02-23T13:11:33;61336.78;;;16.07;nan
7105;BME280;3594;42.152;24.714;2024-02-23T13:13:59;61318.69;;;16.12;nan
7105;BME280;3594;42.152;24.714;2024-02-23T13:16:25;61414.59;;;16.54;nan
7105;BME280;3594;42.152;24.714;2024-02-23T13:18:50;61405.13;;;16.36;nan
7105;BME280;3594;42.152;24.714;2024-02-23T13:21:16;61379.06;;;16.54;nan
7105;BME280;3594;42.152;24.714;2024-02-23T13:23:41;61359.34;;;16.32;nan
7105;BME280;3594;42.152;24.714;2024-02-23T13:26:08;61398.84;;;16.35;nan
7105;BME280;3594;42.152;24.714;2024-02-23T13:28:36;61361.53;;;16.39;nan
7105;BME280;3594;42.152;24.714;2024-02-23T13:31:02;61404.56;;;16.35;nan
7105;BME280;3594;42.152;24.714;2024-02-23T13:33:28;61390.47;;;16.39;nan
7105;BME280;3594;42.152;24.714;2024-02-23T13:35:53;61450.72;;;16.54;nan